createdAt,value
2018-02-15T00:00:11.877Z,25.77
2018-02-15T00:02:40.357Z,26.12
2018-02-15T00:05:09.011Z,24.02
2018-02-15T00:07:36.877Z,22.77
2018-02-15T00:10:04.745Z,24.75
2018-02-15T00:12:32.612Z,25.98
2018-02-15T00:15:00.480Z,22.50
2018-02-15T00:17:28.347Z,21.05
2018-02-15T00:19:56.067Z,23.10
2018-02-15T00:22:23.882Z,20.50
2018-02-15T00:24:51.747Z,22.40
2018-02-15T00:27:19.462Z,18.20
2018-02-15T00:29:47.174Z,20.45
2018-02-15T00:32:15.038Z,20.60
2018-02-15T00:34:42.906Z,21.00
2018-02-15T00:37:10.773Z,25.42
2018-02-15T00:39:38.640Z,18.40
2018-02-15T00:42:06.346Z,20.15
2018-02-15T00:44:34.826Z,21.35
2018-02-15T00:47:03.473Z,22.80
2018-02-15T00:49:31.338Z,26.27
2018-02-15T00:51:59.206Z,26.23
2018-02-15T00:54:27.073Z,22.27
2018-02-15T00:56:54.940Z,22.70
2018-02-15T00:59:22.811Z,20.23
2018-02-15T01:01:50.675Z,20.02
2018-02-15T01:04:18.542Z,22.60
2018-02-15T01:06:46.412Z,23.00
2018-02-15T01:09:14.276Z,22.80
2018-02-15T01:11:42.147Z,25.12
2018-02-15T01:14:09.857Z,24.15
2018-02-15T01:16:38.493Z,27.73
2018-02-15T01:19:06.266Z,21.77
2018-02-15T01:21:34.128Z,23.58
2018-02-15T01:24:01.930Z,25.25
2018-02-15T01:26:31.294Z,22.95
2018-02-15T01:28:59.094Z,27.15
2018-02-15T01:31:27.744Z,27.13
2018-02-15T01:33:55.614Z,25.12
2018-02-15T01:36:23.482Z,32.65
2018-02-15T01:38:51.195Z,27.80
2018-02-15T01:41:19.665Z,23.67
2018-02-15T01:43:48.313Z,25.62
2018-02-15T01:46:16.181Z,25.23
2018-02-15T01:48:44.047Z,28.77
2018-02-15T01:51:11.913Z,19.52
2018-02-15T01:53:39.614Z,26.75
2018-02-15T01:56:08.094Z,27.13
2018-02-15T01:58:36.577Z,29.50
2018-02-15T02:01:05.128Z,24.30
2018-02-15T02:03:32.991Z,27.85
2018-02-15T02:06:00.700Z,25.30
2018-02-15T02:08:29.177Z,26.83
2018-02-15T02:10:57.823Z,30.27
2018-02-15T02:13:25.690Z,31.30
2018-02-15T02:15:53.556Z,31.10
2018-02-15T02:18:21.424Z,28.38
2018-02-15T02:20:50.110Z,34.72
2018-02-15T02:23:17.978Z,30.10
2018-02-15T02:25:45.776Z,31.00
2018-02-15T02:28:14.327Z,30.10
2018-02-15T02:30:42.809Z,23.77
2018-02-15T02:33:10.526Z,31.37
2018-02-15T02:35:38.338Z,24.87
2018-02-15T02:38:06.208Z,25.02
2018-02-15T02:40:34.077Z,30.27
2018-02-15T02:43:01.941Z,30.33
2018-02-15T02:45:29.809Z,26.77
2018-02-15T02:47:57.675Z,29.40
2018-02-15T02:50:25.542Z,27.67
2018-02-15T02:52:53.410Z,31.67
2018-02-15T02:55:21.117Z,26.87
2018-02-15T02:57:49.586Z,25.90
2018-02-15T03:00:18.074Z,27.52
2018-02-15T03:02:46.550Z,25.33
2018-02-15T03:05:15.021Z,25.58
2018-02-15T03:07:42.746Z,25.90
2018-02-15T03:10:10.461Z,27.52
2018-02-15T03:12:38.945Z,30.00
2018-02-15T03:15:07.594Z,29.35
2018-02-15T03:17:35.461Z,25.65
2018-02-15T03:20:03.328Z,27.83
2018-02-15T03:22:31.806Z,28.98
2018-02-15T03:24:59.510Z,31.98
2018-02-15T03:27:28.057Z,29.40
2018-02-15T03:29:55.762Z,30.02
2018-02-15T03:32:24.406Z,25.05
2018-02-15T03:34:52.274Z,30.42
2018-02-15T03:37:20.181Z,33.15
2018-02-15T03:39:48.662Z,32.83
2018-02-15T03:42:17.132Z,33.35
2018-02-15T03:44:44.845Z,27.35
2018-02-15T03:47:12.634Z,27.05
2018-02-15T03:49:40.499Z,30.55
2018-02-15T03:52:08.238Z,26.75
2018-02-15T03:54:35.980Z,30.15
2018-02-15T03:57:04.461Z,30.20
2018-02-15T03:59:32.960Z,32.10
2018-02-15T04:02:00.665Z,31.33
2018-02-15T04:04:28.374Z,35.88
2018-02-15T04:06:56.088Z,36.70
2018-02-15T04:09:23.953Z,33.13
2018-02-15T04:11:51.661Z,43.95
2018-02-15T04:14:19.410Z,32.35
2018-02-15T04:16:47.881Z,36.47
2018-02-15T04:19:16.370Z,30.20
2018-02-15T04:21:44.924Z,30.42
2018-02-15T04:24:12.792Z,32.35
2018-02-15T04:26:40.509Z,32.85
2018-02-15T04:29:08.978Z,31.48
2018-02-15T04:31:37.453Z,39.75
2018-02-15T04:34:05.924Z,35.13
2018-02-15T04:36:33.637Z,38.05
2018-02-15T04:39:01.429Z,38.40
2018-02-15T04:41:29.296Z,35.35
2018-02-15T04:43:56.996Z,32.33
2018-02-15T04:46:25.542Z,32.22
2018-02-15T04:48:53.340Z,33.63
2018-02-15T04:51:21.071Z,31.48
2018-02-15T04:53:48.778Z,35.10
2018-02-15T04:56:17.422Z,31.67
2018-02-15T04:58:45.288Z,29.12
2018-02-15T05:01:15.092Z,31.73
2018-02-15T05:03:42.805Z,27.37
2018-02-15T05:06:11.281Z,34.63
2018-02-15T05:08:39.762Z,27.92
2018-02-15T05:11:08.251Z,35.47
2018-02-15T05:13:35.975Z,31.83
2018-02-15T05:16:04.456Z,28.12
2018-02-15T05:18:32.969Z,31.67
2018-02-15T05:21:00.805Z,34.63
2018-02-15T05:23:28.521Z,30.95
2018-02-15T05:25:57.074Z,32.75
2018-02-15T05:28:24.781Z,35.03
2018-02-15T05:30:52.489Z,32.85
2018-02-15T05:33:20.193Z,29.75
2018-02-15T05:35:48.665Z,28.55
2018-02-15T05:38:17.138Z,28.17
2018-02-15T05:40:44.972Z,32.22
2018-02-15T05:43:12.770Z,33.28
2018-02-15T05:45:41.321Z,31.33
2018-02-15T05:48:09.188Z,30.73
2018-02-15T05:50:36.893Z,31.27
2018-02-15T05:53:05.365Z,31.95
2018-02-15T05:55:33.846Z,26.27
2018-02-15T05:58:01.559Z,30.15
2018-02-15T06:00:29.272Z,29.37
2018-02-15T06:02:56.978Z,31.90
2018-02-15T06:05:24.685Z,25.20
2018-02-15T06:07:52.536Z,26.90
2018-02-15T06:10:20.246Z,32.92
2018-02-15T06:12:48.717Z,31.40
2018-02-15T06:15:17.366Z,31.70
2018-02-15T06:17:45.233Z,35.55
2018-02-15T06:20:13.102Z,37.78
2018-02-15T06:22:40.808Z,27.52
2018-02-15T06:25:09.347Z,31.67
2018-02-15T06:27:37.149Z,31.25
2018-02-15T06:30:05.799Z,25.92
2018-02-15T06:32:33.512Z,24.65
2018-02-15T06:35:01.982Z,25.62
2018-02-15T06:37:30.527Z,26.17
2018-02-15T06:39:58.241Z,31.25
2018-02-15T06:42:26.713Z,24.87
2018-02-15T06:44:55.197Z,25.48
2018-02-15T06:47:23.839Z,25.75
2018-02-15T06:49:51.706Z,20.55
2018-02-15T06:52:19.574Z,24.98
2018-02-15T06:54:47.285Z,25.62
2018-02-15T06:57:15.776Z,30.33
2018-02-15T06:59:43.477Z,27.73
2018-02-15T07:02:11.349Z,24.75
2018-02-15T07:04:39.053Z,27.50
2018-02-15T07:07:07.653Z,26.15
2018-02-15T07:09:35.377Z,23.67
2018-02-15T07:12:03.089Z,26.95
2018-02-15T07:14:30.891Z,26.10
2018-02-15T07:16:58.758Z,25.12
2018-02-15T07:19:26.625Z,23.42
2018-02-15T07:21:54.492Z,25.98
2018-02-15T07:24:22.196Z,23.30
2018-02-15T07:26:50.670Z,21.30
2018-02-15T07:29:19.142Z,22.87
2018-02-15T07:31:46.984Z,18.92
2018-02-15T07:34:14.685Z,20.25
2018-02-15T07:36:43.186Z,26.55
2018-02-15T07:39:10.996Z,20.60
2018-02-15T07:41:38.705Z,19.67
2018-02-15T07:44:07.183Z,19.27
2018-02-15T07:46:35.827Z,23.05
2018-02-15T07:49:03.694Z,20.88
2018-02-15T07:51:31.441Z,23.80
2018-02-15T07:53:59.185Z,27.62
2018-02-15T07:56:26.989Z,20.35
2018-02-15T07:58:54.856Z,24.87
2018-02-15T08:01:22.724Z,23.33
2018-02-15T08:03:50.590Z,24.80
2018-02-15T08:06:18.458Z,23.87
2018-02-15T08:08:46.325Z,26.10
2018-02-15T08:11:14.192Z,26.65
2018-02-15T08:13:42.096Z,27.10
2018-02-15T08:16:10.643Z,30.23
2018-02-15T08:18:38.510Z,25.95
2018-02-15T08:21:06.377Z,28.00
2018-02-15T08:23:34.244Z,29.52
2018-02-15T08:26:02.136Z,29.48
2018-02-15T08:28:29.982Z,30.50
2018-02-15T08:30:57.744Z,32.30
2018-02-15T08:33:25.611Z,29.70
2018-02-15T08:35:53.480Z,29.92
2018-02-15T08:38:21.348Z,29.05
2018-02-15T08:40:49.213Z,26.00
2018-02-15T08:43:17.084Z,27.35
2018-02-15T08:45:44.948Z,29.52
2018-02-15T08:48:12.657Z,31.27
2018-02-15T08:50:41.149Z,33.88
2018-02-15T08:53:08.860Z,39.10
2018-02-15T08:55:36.724Z,28.87
2018-02-15T08:58:04.610Z,29.98
2018-02-15T09:00:32.458Z,26.10
2018-02-15T09:03:00.326Z,25.20
2018-02-15T09:05:28.193Z,29.83
2018-02-15T09:07:56.059Z,24.02
2018-02-15T09:10:23.927Z,25.17
2018-02-15T09:12:51.794Z,24.00
2018-02-15T09:15:19.660Z,23.92
2018-02-15T09:17:47.530Z,23.83
2018-02-15T09:20:15.395Z,20.40
2018-02-15T09:22:43.263Z,27.33
2018-02-15T09:25:10.968Z,20.75
2018-02-15T09:27:39.437Z,23.38
2018-02-15T09:30:07.274Z,25.12
2018-02-15T09:32:35.142Z,28.55
2018-02-15T09:35:03.009Z,24.10
2018-02-15T09:37:30.875Z,24.85
2018-02-15T09:39:58.743Z,23.12
2018-02-15T09:42:26.610Z,19.15
2018-02-15T09:44:54.477Z,22.35
2018-02-15T09:47:22.447Z,23.42
2018-02-15T09:49:50.315Z,29.70
2018-02-15T09:52:18.182Z,28.23
2018-02-15T09:54:46.048Z,20.17
2018-02-15T09:57:13.917Z,21.27
2018-02-15T09:59:41.785Z,20.40
2018-02-15T10:02:09.650Z,25.35
2018-02-15T10:04:37.518Z,19.17
2018-02-15T10:07:05.385Z,24.98
2018-02-15T10:09:33.253Z,24.35
2018-02-15T10:12:01.124Z,20.25
2018-02-15T10:14:28.987Z,20.00
2018-02-15T10:16:56.935Z,20.30
2018-02-15T10:19:24.720Z,22.37
2018-02-15T10:21:52.590Z,20.25
2018-02-15T10:24:20.455Z,20.17
2018-02-15T10:26:48.322Z,21.98
2018-02-15T10:29:16.193Z,23.05
2018-02-15T10:31:44.057Z,23.48
2018-02-15T10:34:11.926Z,22.25
2018-02-15T10:36:39.801Z,24.17
2018-02-15T10:39:08.375Z,24.48
2018-02-15T10:41:36.242Z,23.12
2018-02-15T10:44:04.109Z,20.25
2018-02-15T10:46:31.978Z,20.08
2018-02-15T10:48:59.844Z,23.58
2018-02-15T10:51:27.716Z,28.33
2018-02-15T10:53:55.578Z,23.20
2018-02-15T10:56:23.446Z,24.70
2018-02-15T10:58:51.312Z,23.70
2018-02-15T11:01:24.816Z,23.50
2018-02-15T11:03:58.246Z,22.83
2018-02-15T11:06:26.897Z,25.92
2018-02-15T11:08:54.765Z,26.20
2018-02-15T11:11:22.631Z,21.77
2018-02-15T11:13:50.497Z,24.55
2018-02-15T11:16:18.364Z,21.50
2018-02-15T11:18:46.231Z,24.83
2018-02-15T11:21:14.098Z,20.62
2018-02-15T11:23:41.967Z,21.75
2018-02-15T11:26:09.835Z,21.50
2018-02-15T11:28:37.700Z,18.65
2018-02-15T11:31:05.572Z,20.60
2018-02-15T11:33:33.436Z,22.45
2018-02-15T11:36:01.303Z,18.80
2018-02-15T11:38:29.169Z,22.27
2018-02-15T11:40:57.035Z,18.48
2018-02-15T11:43:24.904Z,21.12
2018-02-15T11:45:52.770Z,20.00
2018-02-15T11:48:20.638Z,20.15
2018-02-15T11:50:48.505Z,22.45
2018-02-15T11:53:16.372Z,20.25
2018-02-15T11:55:44.239Z,24.95
2018-02-15T11:58:17.943Z,22.95
2018-02-15T12:00:45.810Z,24.52
2018-02-15T12:03:13.677Z,25.08
2018-02-15T12:05:41.545Z,24.23
2018-02-15T12:08:09.412Z,24.05
2018-02-15T12:10:37.313Z,26.80
2018-02-15T12:13:05.966Z,27.48
2018-02-15T12:15:33.833Z,27.98
2018-02-15T12:18:01.703Z,26.50
2018-02-15T12:20:29.567Z,25.42
2018-02-15T12:22:57.434Z,26.75
2018-02-15T12:25:25.302Z,28.25
2018-02-15T12:27:53.168Z,25.33
2018-02-15T12:30:21.036Z,28.10
2018-02-15T12:32:48.904Z,30.20
2018-02-15T12:35:16.771Z,29.10
2018-02-15T12:37:44.489Z,35.50
2018-02-15T12:40:12.300Z,34.97
2018-02-15T12:42:40.168Z,30.73
2018-02-15T12:45:08.035Z,32.10
2018-02-15T12:47:35.902Z,29.92
2018-02-15T12:50:03.769Z,27.90
2018-02-15T12:52:31.739Z,27.40
2018-02-15T12:54:59.606Z,25.95
2018-02-15T12:57:27.481Z,28.00
2018-02-15T12:59:55.341Z,35.03
2018-02-15T13:02:23.207Z,33.25
2018-02-15T13:04:51.074Z,29.00
2018-02-15T13:07:18.941Z,34.53
2018-02-15T13:09:46.808Z,31.62
2018-02-15T13:12:26.451Z,29.35
2018-02-15T13:14:54.319Z,42.85
2018-02-15T13:17:22.186Z,34.10
2018-02-15T13:20:01.932Z,30.02
2018-02-15T13:22:41.474Z,35.05
2018-02-15T13:25:09.340Z,32.85
2018-02-15T13:27:57.995Z,33.55
2018-02-15T13:30:25.862Z,32.13
2018-02-15T13:32:53.730Z,31.27
2018-02-15T13:35:21.597Z,36.85
2018-02-15T13:37:49.464Z,32.38
2018-02-15T13:40:17.331Z,39.10
2018-02-15T13:42:45.198Z,39.90
2018-02-15T13:45:13.066Z,29.98
2018-02-15T13:47:40.933Z,30.05
2018-02-15T13:50:08.799Z,29.10
2018-02-15T13:52:36.667Z,35.63
2018-02-15T13:55:04.534Z,37.53
2018-02-15T13:57:32.404Z,37.20
2018-02-15T14:00:00.268Z,33.08
2018-02-15T14:02:28.136Z,34.13
2018-02-15T14:04:56.003Z,32.95
2018-02-15T14:07:23.870Z,35.42
2018-02-15T14:09:51.738Z,52.83
2018-02-15T14:12:19.604Z,34.75
2018-02-15T14:14:47.472Z,41.80
2018-02-15T14:17:15.339Z,35.80
2018-02-15T14:19:43.206Z,37.38
2018-02-15T14:22:11.073Z,43.33
2018-02-15T14:24:38.941Z,34.15
2018-02-15T14:27:06.808Z,34.67
2018-02-15T14:29:34.675Z,39.05
2018-02-15T14:32:02.542Z,38.63
2018-02-15T14:34:30.410Z,32.40
2018-02-15T14:36:58.277Z,36.78
2018-02-15T14:39:26.144Z,44.08
2018-02-15T14:41:54.012Z,37.25
2018-02-15T14:44:21.879Z,41.97
2018-02-15T14:46:49.746Z,38.22
2018-02-15T14:49:17.612Z,38.25
2018-02-15T14:51:45.479Z,38.55
2018-02-15T14:54:13.346Z,32.55
2018-02-15T14:56:41.214Z,38.13
2018-02-15T14:59:09.081Z,34.05
2018-02-15T15:01:36.949Z,33.80
2018-02-15T15:04:04.816Z,29.60
2018-02-15T15:06:32.686Z,35.85
2018-02-15T15:09:00.551Z,33.50
2018-02-15T15:11:28.418Z,33.28
2018-02-15T15:13:56.285Z,33.95
2018-02-15T15:16:24.152Z,32.45
2018-02-15T15:18:52.019Z,31.58
2018-02-15T15:21:19.887Z,30.37
2018-02-15T15:23:47.753Z,34.35
2018-02-15T15:26:15.621Z,29.20
2018-02-15T15:28:43.490Z,37.03
2018-02-15T15:31:11.356Z,32.60
2018-02-15T15:33:39.222Z,32.00
2018-02-15T15:36:07.089Z,38.20
2018-02-15T15:38:34.957Z,37.45
2018-02-15T15:41:02.825Z,34.65
2018-02-15T15:43:30.692Z,30.77
2018-02-15T15:45:58.559Z,29.17
2018-02-15T15:48:27.102Z,34.70
2018-02-15T15:50:54.907Z,30.98
2018-02-15T15:53:22.613Z,31.35
2018-02-15T15:55:51.085Z,34.22
2018-02-15T15:58:19.561Z,39.10
2018-02-15T16:00:47.276Z,32.45
2018-02-15T16:03:15.005Z,29.12
2018-02-15T16:05:43.481Z,34.97
2018-02-15T16:08:12.131Z,33.95
2018-02-15T16:10:39.841Z,32.72
2018-02-15T16:13:07.657Z,34.10
2018-02-15T16:15:35.526Z,32.92
2018-02-15T16:18:03.238Z,30.92
2018-02-15T16:20:30.958Z,32.75
2018-02-15T16:22:58.665Z,34.80
2018-02-15T16:25:26.378Z,30.90
2018-02-15T16:27:54.085Z,33.38
2018-02-15T16:30:22.729Z,37.35
2018-02-15T16:32:50.445Z,32.38
2018-02-15T16:35:18.258Z,29.65
2018-02-15T16:37:46.742Z,39.28
2018-02-15T16:40:14.608Z,40.05
2018-02-15T16:42:42.373Z,32.53
2018-02-15T16:45:10.239Z,33.60
2018-02-15T16:47:37.953Z,31.42
2018-02-15T16:50:05.665Z,34.75
2018-02-15T16:52:33.403Z,34.60
2018-02-15T16:55:01.116Z,32.42
2018-02-15T16:57:28.961Z,31.77
2018-02-15T16:59:56.831Z,32.22
2018-02-15T17:02:24.695Z,34.15
2018-02-15T17:05:09.665Z,31.90
2018-02-15T17:07:37.402Z,38.72
2018-02-15T17:10:05.166Z,29.23
2018-02-15T17:12:32.895Z,27.58
2018-02-15T17:15:01.383Z,29.85
2018-02-15T17:17:29.870Z,33.25
2018-02-15T17:19:58.362Z,31.08
2018-02-15T17:22:26.082Z,32.60
2018-02-15T17:24:53.801Z,34.85
2018-02-15T17:27:21.518Z,40.92
2018-02-15T17:29:49.358Z,34.78
2018-02-15T17:32:17.228Z,32.63
2018-02-15T17:34:44.993Z,34.72
2018-02-15T17:37:12.789Z,36.10
2018-02-15T17:39:40.522Z,33.75
2018-02-15T17:42:08.250Z,34.10
2018-02-15T17:44:35.977Z,34.15
2018-02-15T17:47:03.710Z,36.75
2018-02-15T17:49:31.595Z,36.65
2018-02-15T17:51:59.325Z,35.38
2018-02-15T17:54:27.062Z,35.65
2018-02-15T17:56:54.879Z,38.33
2018-02-15T17:59:22.614Z,36.40
2018-02-15T18:01:50.407Z,36.42
2018-02-15T18:04:18.275Z,37.28
2018-02-15T18:06:45.997Z,37.25
2018-02-15T18:09:13.737Z,32.03
2018-02-15T18:11:42.285Z,34.22
2018-02-15T18:14:10.153Z,33.85
2018-02-15T18:16:38.028Z,42.25
2018-02-15T18:19:05.888Z,37.10
2018-02-15T18:21:33.613Z,37.05
2018-02-15T18:24:01.370Z,39.65
2018-02-15T18:26:29.090Z,43.22
2018-02-15T18:28:56.816Z,42.53
2018-02-15T18:31:24.538Z,35.53
2018-02-15T18:33:52.258Z,39.17
2018-02-15T18:36:19.989Z,43.78
2018-02-15T18:38:47.714Z,40.12
2018-02-15T18:41:15.591Z,37.88
2018-02-15T18:43:43.433Z,39.42
2018-02-15T18:46:11.302Z,32.83
2018-02-15T18:48:39.168Z,35.20
2018-02-15T18:51:06.933Z,41.72
2018-02-15T18:53:34.800Z,37.28
2018-02-15T18:56:02.525Z,42.65
2018-02-15T18:58:30.255Z,39.42
2018-02-15T19:00:58.776Z,44.33
2018-02-15T19:03:26.679Z,43.03
2018-02-15T19:05:54.549Z,41.67
2018-02-15T19:08:22.284Z,36.67
2018-02-15T19:10:50.178Z,45.97
2018-02-15T19:13:18.046Z,44.50
2018-02-15T19:15:45.769Z,51.35
2018-02-15T19:18:13.678Z,44.90
2018-02-15T19:20:41.399Z,45.92
2018-02-15T19:23:09.223Z,41.42
2018-02-15T19:25:36.940Z,42.30
2018-02-15T19:28:04.877Z,39.95
2018-02-15T19:30:33.358Z,47.88
2018-02-15T19:33:01.838Z,41.00
2018-02-15T19:35:30.490Z,41.03
2018-02-15T19:37:58.210Z,43.95
2018-02-15T19:40:25.917Z,36.35
2018-02-15T19:42:53.626Z,37.08
2018-02-15T19:45:22.101Z,40.97
2018-02-15T19:47:50.581Z,38.15
2018-02-15T19:50:19.230Z,42.88
2018-02-15T19:52:46.963Z,43.83
2018-02-15T19:55:14.674Z,42.10
2018-02-15T19:57:42.628Z,42.40
2018-02-15T20:00:10.371Z,45.60
2018-02-15T20:02:38.076Z,50.28
2018-02-15T20:05:05.801Z,55.35
2018-02-15T20:07:33.585Z,49.30
2018-02-15T20:10:01.298Z,47.60
2018-02-15T20:12:29.015Z,52.80
2018-02-15T20:14:56.728Z,48.80
2018-02-15T20:17:24.442Z,53.08
2018-02-15T20:19:58.041Z,46.67
2018-02-15T20:22:26.729Z,51.40
2018-02-15T20:24:54.595Z,42.20
2018-02-15T20:27:27.991Z,46.58
2018-02-15T20:29:56.478Z,37.80
2018-02-15T20:32:24.203Z,38.25
2018-02-15T20:34:51.925Z,38.92
2018-02-15T20:37:19.698Z,40.20
2018-02-15T20:39:53.934Z,49.17
2018-02-15T20:42:21.749Z,45.03
2018-02-15T20:44:49.469Z,40.72
2018-02-15T20:47:17.201Z,40.97
2018-02-15T20:50:00.687Z,40.55
2018-02-15T20:52:33.986Z,41.63
2018-02-15T20:55:07.608Z,41.42
2018-02-15T20:57:35.337Z,40.08
2018-02-15T21:00:03.240Z,42.62
2018-02-15T21:02:31.362Z,44.08
2018-02-15T21:04:59.087Z,45.00
2018-02-15T21:07:26.945Z,45.88
2018-02-15T21:09:54.670Z,50.88
2018-02-15T21:12:22.477Z,44.85
2018-02-15T21:14:50.344Z,47.83
2018-02-15T21:17:18.215Z,49.45
2018-02-15T21:19:46.081Z,49.58
2018-02-15T21:22:13.819Z,49.30
2018-02-15T21:24:41.538Z,46.17
2018-02-15T21:27:10.089Z,44.78
2018-02-15T21:29:37.814Z,45.75
2018-02-15T21:32:05.619Z,44.47
2018-02-15T21:34:33.341Z,48.95
2018-02-15T21:37:01.069Z,47.28
2018-02-15T21:39:28.912Z,48.47
2018-02-15T21:41:56.780Z,48.00
2018-02-15T21:44:24.505Z,46.80
2018-02-15T21:46:52.242Z,54.10
2018-02-15T21:49:20.733Z,72.15
2018-02-15T21:51:49.225Z,76.10
2018-02-15T21:54:16.953Z,55.80
2018-02-15T21:56:44.685Z,52.05
2018-02-15T21:59:12.437Z,49.75
2018-02-15T22:01:40.165Z,52.60
2018-02-15T22:04:08.666Z,50.05
2018-02-15T22:06:36.476Z,50.22
2018-02-15T22:09:04.367Z,50.10
2018-02-15T22:11:32.087Z,43.60
2018-02-15T22:13:59.874Z,51.58
2018-02-15T22:16:27.607Z,104.20
2018-02-15T22:18:55.354Z,63.78
2018-02-15T22:21:23.090Z,144.10
2018-02-15T22:23:50.826Z,90.28
2018-02-15T22:26:18.561Z,121.62
2018-02-15T22:28:46.362Z,92.05
2018-02-15T22:31:14.071Z,86.47
2018-02-15T22:33:42.563Z,116.25
2018-02-15T22:36:10.375Z,95.50
2018-02-15T22:38:38.242Z,126.38
2018-02-15T22:41:05.958Z,128.23
2018-02-15T22:43:33.675Z,192.45
2018-02-15T22:46:01.536Z,83.62
2018-02-15T22:48:29.269Z,80.50
2018-02-15T22:50:57.065Z,117.57
2018-02-15T22:53:24.932Z,87.30
2018-02-15T22:55:52.799Z,87.82
2018-02-15T22:58:20.518Z,74.78
2018-02-15T23:00:48.239Z,70.55
2018-02-15T23:03:15.957Z,60.35
2018-02-15T23:05:43.661Z,57.78
2018-02-15T23:08:11.521Z,57.15
2018-02-15T23:10:39.389Z,57.72
2018-02-15T23:13:07.256Z,49.22
2018-02-15T23:15:34.974Z,48.17
2018-02-15T23:18:02.786Z,45.42
2018-02-15T23:20:30.498Z,48.30
2018-02-15T23:22:58.211Z,50.15
2018-02-15T23:25:25.945Z,50.10
2018-02-15T23:27:53.743Z,41.70
2018-02-15T23:30:21.461Z,46.47
2018-02-15T23:32:49.173Z,45.42
2018-02-15T23:35:16.889Z,45.95
2018-02-15T23:37:44.701Z,49.70
2018-02-15T23:40:12.569Z,46.97
2018-02-15T23:42:40.435Z,44.50
2018-02-15T23:45:08.305Z,47.13
2018-02-15T23:47:36.169Z,43.28
2018-02-15T23:50:04.037Z,49.50
2018-02-15T23:52:31.904Z,43.72
2018-02-15T23:54:59.773Z,48.10
2018-02-15T23:57:27.639Z,45.72
2018-02-15T23:59:55.507Z,49.58
